Time;durP1;ratioP1;P1;durP2;ratioP2;P2;SDS_P1;SDS_P2;PMS_P1;PMS_P2;Temp;Humidity;BMP_temperature;BMP_pressure;BME280_temperature;BME280_humidity;BME280_pressure;Samples;Min_cycle;Max_cycle;Signal;HPM_P1;HPM_P2
2022/05/27 00:00:54;;;;;;;10.27;4.82;;;14.00;99.90;;;;;;4958047;28;95908;-37
2022/05/27 00:03:21;;;;;;;9.45;4.85;;;14.00;99.90;;;;;;4958439;28;94580;-38
2022/05/27 00:05:50;;;;;;;5.53;3.85;;;14.00;99.90;;;;;;4958166;28;93840;-34
2022/05/27 00:08:16;;;;;;;5.97;4.47;;;13.90;99.90;;;;;;4958663;28;94863;-33
2022/05/27 00:10:42;;;;;;;6.88;4.70;;;13.90;99.90;;;;;;4957499;28;94620;-38
2022/05/27 00:13:08;;;;;;;9.25;4.75;;;13.90;99.90;;;;;;4957928;28;96341;-35
2022/05/27 00:15:34;;;;;;;8.35;4.82;;;13.90;99.90;;;;;;4957812;28;93044;-34
2022/05/27 00:18:00;;;;;;;12.35;4.45;;;13.80;99.90;;;;;;4958455;28;94438;-34
2022/05/27 00:20:26;;;;;;;7.45;4.03;;;13.80;99.90;;;;;;4940471;28;94441;-33
2022/05/27 00:22:52;;;;;;;9.27;4.50;;;13.80;99.90;;;;;;4958174;28;94420;-38
2022/05/27 00:25:19;;;;;;;5.13;3.92;;;13.80;99.90;;;;;;4958681;28;92629;-34
2022/05/27 00:27:44;;;;;;;9.05;4.63;;;13.80;99.90;;;;;;4957863;28;92907;-37
2022/05/27 00:30:10;;;;;;;7.47;4.13;;;13.80;99.90;;;;;;4958542;28;95988;-34
2022/05/27 00:32:40;;;;;;;5.70;3.95;;;13.70;99.90;;;;;;4940722;28;95267;-34
2022/05/27 00:35:06;;;;;;;6.82;3.55;;;13.70;99.90;;;;;;4958296;28;92188;-36
2022/05/27 00:37:32;;;;;;;7.07;4.47;;;13.70;99.90;;;;;;4957803;28;92800;-34
2022/05/27 00:39:58;;;;;;;9.65;4.22;;;13.70;99.90;;;;;;4957724;28;94864;-35
2022/05/27 00:42:24;;;;;;;7.82;4.22;;;13.70;99.90;;;;;;4957983;28;94667;-36
2022/05/27 00:44:50;;;;;;;3.78;3.47;;;13.60;99.90;;;;;;4957738;28;93018;-36
2022/05/27 00:47:18;;;;;;;4.55;3.20;;;13.60;99.90;;;;;;4958289;28;92416;-35
2022/05/27 00:49:52;;;;;;;4.32;3.45;;;13.60;99.90;;;;;;5011293;22;94880;-37
2022/05/27 00:52:21;;;;;;;9.57;4.15;;;13.60;99.90;;;;;;4998304;28;93452;-34
2022/05/27 00:54:47;;;;;;;8.25;3.95;;;13.60;99.90;;;;;;4997402;28;94722;-33
2022/05/27 00:57:17;;;;;;;4.43;3.38;;;13.60;99.90;;;;;;4997726;28;93314;-36
2022/05/27 00:59:50;;;;;;;8.93;3.90;;;13.50;99.90;;;;;;4997438;28;94856;-34
2022/05/27 01:02:17;;;;;;;15.05;4.35;;;13.50;99.90;;;;;;4997546;28;94726;-36
2022/05/27 01:04:44;;;;;;;6.35;4.05;;;13.40;99.90;;;;;;4997503;28;94817;-34
2022/05/27 01:07:10;;;;;;;4.50;4.10;;;13.40;99.90;;;;;;4996853;28;92133;-38
2022/05/27 01:09:38;;;;;;;7.00;3.92;;;13.30;99.90;;;;;;4997384;28;95192;-35
2022/05/27 01:12:25;;;;;;;6.95;3.83;;;13.30;99.90;;;;;;4998069;28;94055;-34
2022/05/27 01:15:10;;;;;;;8.07;4.90;;;13.40;99.90;;;;;;4997668;28;92333;-34
2022/05/27 01:18:04;;;;;;;6.65;4.22;;;13.30;99.90;;;;;;4997487;28;94370;-34
2022/05/27 01:20:57;;;;;;;10.02;4.28;;;13.30;99.90;;;;;;4996795;28;95960;-36
2022/05/27 01:23:42;;;;;;;6.30;4.20;;;13.20;99.90;;;;;;4988188;28;95869;-35
2022/05/27 01:26:41;;;;;;;9.32;4.78;;;13.20;99.90;;;;;;4997695;28;94641;-38
2022/05/27 01:29:40;;;;;;;12.63;5.47;;;13.20;99.90;;;;;;4996527;28;92861;-34
2022/05/27 01:32:20;;;;;;;8.45;4.50;;;13.20;99.90;;;;;;4996963;28;94838;-37
2022/05/27 01:34:52;;;;;;;7.85;4.38;;;13.10;99.90;;;;;;4996095;28;94057;-36
2022/05/27 01:37:45;;;;;;;7.03;4.68;;;13.10;99.90;;;;;;4997192;28;94391;-33
2022/05/27 01:40:14;;;;;;;7.38;4.25;;;13.10;99.90;;;;;;4996786;28;92309;-37
2022/05/27 01:42:45;;;;;;;5.40;4.82;;;13.00;99.90;;;;;;4996571;28;94616;-35
2022/05/27 01:45:11;;;;;;;7.80;5.20;;;13.00;99.90;;;;;;4996370;28;94662;-34
2022/05/27 01:47:52;;;;;;;4.32;3.92;;;13.00;99.90;;;;;;4996672;28;95789;-33
2022/05/27 01:50:31;;;;;;;6.97;4.53;;;13.00;99.90;;;;;;4995892;28;93075;-34
2022/05/27 01:53:05;;;;;;;15.15;4.78;;;12.90;99.90;;;;;;4996526;28;95018;-34
2022/05/27 01:55:53;;;;;;;10.15;4.15;;;12.90;99.90;;;;;;4996513;28;94412;-34
2022/05/27 01:58:36;;;;;;;14.15;5.07;;;12.90;99.90;;;;;;4996687;28;94709;-35
2022/05/27 02:01:04;;;;;;;7.20;4.32;;;12.80;99.90;;;;;;4996933;28;93034;-37
2022/05/27 02:03:39;;;;;;;12.38;4.53;;;12.80;99.90;;;;;;4978967;28;96683;-37
2022/05/27 02:06:19;;;;;;;6.88;4.82;;;12.80;99.90;;;;;;4996763;28;94719;-34
2022/05/27 02:08:50;;;;;;;9.77;5.00;;;12.80;99.90;;;;;;4996860;28;92503;-33
2022/05/27 02:11:18;;;;;;;13.30;4.97;;;12.80;99.90;;;;;;4996186;28;92070;-33
2022/05/27 02:13:47;;;;;;;;;;;12.80;99.90;;;;;;4997232;28;97643;-35
2022/05/27 02:16:18;;;;;;;12.93;6.38;;;12.70;99.90;;;;;;5001079;28;94016;-35
2022/05/27 02:18:58;;;;;;;11.73;5.25;;;12.70;99.90;;;;;;5000131;28;94244;-34
2022/05/27 02:21:37;;;;;;;11.63;4.80;;;12.70;99.90;;;;;;5000547;28;92166;-33
2022/05/27 02:24:06;;;;;;;9.77;5.35;;;12.70;99.90;;;;;;5000222;28;95164;-34
2022/05/27 02:26:38;;;;;;;6.72;4.65;;;12.70;99.90;;;;;;4998472;28;96077;-34
2022/05/27 02:29:14;;;;;;;10.55;4.50;;;12.70;99.90;;;;;;4993421;28;93279;-34
2022/05/27 02:31:45;;;;;;;10.65;4.78;;;12.70;99.90;;;;;;4981829;28;93320;-36
2022/05/27 02:37:21;;;;;;;9.45;5.05;;;12.70;99.90;;;;;;4999716;28;94784;-33
2022/05/27 02:39:47;;;;;;;23.20;5.13;;;12.70;99.90;;;;;;4999404;28;93060;-34
2022/05/27 02:42:37;;;;;;;17.30;5.68;;;12.70;99.90;;;;;;4999403;28;95079;-33
2022/05/27 02:45:24;;;;;;;13.70;5.45;;;12.70;99.90;;;;;;4999142;28;94906;-37
2022/05/27 02:48:01;;;;;;;9.65;4.82;;;12.70;99.90;;;;;;4998724;28;94485;-36
2022/05/27 02:50:42;;;;;;;16.02;4.47;;;12.60;99.90;;;;;;4999443;28;93160;-35
2022/05/27 02:53:23;;;;;;;6.57;3.92;;;12.60;99.90;;;;;;4999593;28;92131;-37
2022/05/27 02:56:13;;;;;;;11.65;5.25;;;12.60;99.90;;;;;;4999312;28;95681;-33
2022/05/27 02:58:39;;;;;;;9.60;3.92;;;12.50;99.90;;;;;;5000104;28;94615;-35
2022/05/27 03:01:05;;;;;;;14.32;4.82;;;12.50;99.90;;;;;;4999593;28;94189;-38
2022/05/27 03:03:31;;;;;;;16.10;4.80;;;12.50;99.90;;;;;;4999366;28;94674;-35
2022/05/27 03:06:18;;;;;;;15.85;5.47;;;12.50;99.90;;;;;;4998418;28;95800;-35
2022/05/27 03:09:17;;;;;;;7.78;4.28;;;12.50;99.90;;;;;;4998752;28;95490;-36
2022/05/27 03:11:56;;;;;;;17.05;5.18;;;12.50;99.90;;;;;;4999629;28;93104;-35
2022/05/27 03:14:46;;;;;;;13.80;4.85;;;12.40;99.90;;;;;;4998926;28;94638;-37
2022/05/27 03:17:36;;;;;;;10.20;4.38;;;12.40;99.90;;;;;;4999291;28;93580;-37
2022/05/27 03:20:20;;;;;;;20.75;5.28;;;12.40;99.90;;;;;;4999397;28;94693;-37
2022/05/27 03:23:24;;;;;;;10.70;4.95;;;12.40;99.90;;;;;;4999076;28;93240;-37
2022/05/27 03:25:59;;;;;;;9.98;4.18;;;12.40;99.90;;;;;;4997739;28;92676;-36
2022/05/27 03:28:40;;;;;;;9.10;4.95;;;12.40;99.90;;;;;;4999278;28;94813;-35
2022/05/27 03:31:19;;;;;;;14.15;4.25;;;12.30;99.90;;;;;;4998872;28;94434;-34
2022/05/27 03:34:04;;;;;;;12.27;5.13;;;12.30;99.90;;;;;;4998877;28;94265;-36
2022/05/27 03:36:50;;;;;;;11.75;4.43;;;12.30;99.90;;;;;;4980778;28;94780;-37
2022/05/27 03:39:43;;;;;;;10.93;5.20;;;12.30;99.90;;;;;;4998361;28;94795;-34
2022/05/27 03:42:10;;;;;;;11.35;5.88;;;12.30;99.90;;;;;;4998990;28;94694;-33
2022/05/27 03:44:36;;;;;;;12.07;5.40;;;12.30;99.90;;;;;;4999122;28;93146;-35
2022/05/27 03:47:02;;;;;;;13.75;5.57;;;12.30;99.90;;;;;;4997919;28;92945;-34
2022/05/27 03:49:28;;;;;;;15.52;4.15;;;12.30;99.90;;;;;;4998999;28;94674;-34
2022/05/27 03:52:04;;;;;;;10.57;4.75;;;12.30;99.90;;;;;;4997727;28;94410;-37
2022/05/27 03:54:29;;;;;;;11.27;4.68;;;12.30;99.90;;;;;;4999181;28;92711;-36
2022/05/27 03:56:55;;;;;;;8.85;4.57;;;12.30;99.90;;;;;;4998422;28;93100;-34
2022/05/27 03:59:22;;;;;;;9.43;3.60;;;12.30;99.90;;;;;;4997424;28;95562;-33
2022/05/27 04:01:52;;;;;;;11.65;4.55;;;12.40;99.90;;;;;;4998053;28;95477;-36
2022/05/27 04:04:21;;;;;;;9.93;3.58;;;12.30;99.90;;;;;;4999150;28;94680;-36
2022/05/27 04:06:47;;;;;;;10.25;3.65;;;12.40;99.90;;;;;;4997951;28;93957;-34
2022/05/27 04:09:14;;;;;;;11.25;4.70;;;12.40;99.90;;;;;;4998294;28;94984;-34
2022/05/27 04:11:40;;;;;;;13.10;4.93;;;12.40;99.90;;;;;;4997699;28;94296;-36
2022/05/27 04:14:06;;;;;;;12.05;5.20;;;12.50;99.90;;;;;;4999158;28;94231;-37
2022/05/27 04:16:32;;;;;;;7.47;4.05;;;12.50;99.90;;;;;;4998735;28;91953;-37
2022/05/27 04:18:58;;;;;;;9.93;5.05;;;12.50;99.90;;;;;;4997455;28;95813;-36
2022/05/27 04:21:23;;;;;;;6.75;4.63;;;12.40;99.90;;;;;;4997755;28;94941;-34
2022/05/27 04:23:49;;;;;;;9.32;4.35;;;12.50;99.90;;;;;;4997479;28;93046;-34
2022/05/27 04:26:16;;;;;;;17.45;5.30;;;12.40;99.90;;;;;;4980722;28;93964;-38
2022/05/27 04:28:42;;;;;;;16.70;6.30;;;12.40;99.90;;;;;;4980026;28;95102;-36
2022/05/27 04:31:07;;;;;;;11.00;5.28;;;12.40;99.90;;;;;;4998150;28;94651;-34
2022/05/27 04:33:33;;;;;;;5.90;4.28;;;12.50;99.90;;;;;;4998404;28;93064;-33
2022/05/27 04:35:59;;;;;;;10.90;4.55;;;12.50;99.90;;;;;;4996777;28;94798;-34
2022/05/27 04:38:26;;;;;;;15.85;5.85;;;12.50;99.90;;;;;;4998016;28;94891;-35
2022/05/27 04:40:52;;;;;;;15.13;4.93;;;12.50;99.90;;;;;;4997280;28;93734;-34
2022/05/27 04:43:17;;;;;;;10.80;4.90;;;12.50;99.90;;;;;;4997351;28;94018;-35
2022/05/27 04:45:43;;;;;;;9.25;5.32;;;12.50;99.90;;;;;;4997406;28;93109;-36
2022/05/27 04:48:09;;;;;;;10.73;4.82;;;12.60;99.90;;;;;;4997148;28;95641;-34
2022/05/27 04:50:35;;;;;;;14.70;4.57;;;12.60;99.90;;;;;;4997035;28;96059;-36
2022/05/27 04:53:01;;;;;;;10.25;4.85;;;12.60;99.90;;;;;;4998048;28;94779;-34
2022/05/27 04:55:30;;;;;;;12.88;5.03;;;12.50;99.90;;;;;;4996760;28;93143;-35
2022/05/27 04:57:56;;;;;;;12.13;5.05;;;12.60;99.90;;;;;;4997226;28;94846;-37
2022/05/27 05:00:34;;;;;;;14.40;4.72;;;12.60;99.90;;;;;;4997880;28;93770;-34
2022/05/27 05:03:01;;;;;;;6.88;4.10;;;12.60;99.90;;;;;;4998507;28;92231;-33
2022/05/27 05:05:29;;;;;;;18.70;5.55;;;12.60;99.90;;;;;;4997454;28;92509;-34
2022/05/27 05:07:59;;;;;;;13.07;4.82;;;12.60;99.90;;;;;;4996352;28;94926;-36
2022/05/27 05:10:26;;;;;;;16.92;5.60;;;12.60;99.90;;;;;;4996491;28;94477;-34
2022/05/27 05:12:52;;;;;;;17.50;5.85;;;12.50;99.90;;;;;;4997380;28;93002;-33
2022/05/27 05:15:19;;;;;;;17.23;4.50;;;12.50;99.90;;;;;;4997416;28;93176;-38
2022/05/27 05:17:46;;;;;;;10.70;4.53;;;12.50;99.90;;;;;;4996584;28;94773;-34
2022/05/27 05:20:13;;;;;;;15.63;4.90;;;12.50;99.90;;;;;;4997385;28;94691;-38
2022/05/27 05:22:40;;;;;;;14.90;4.43;;;12.50;99.90;;;;;;4996888;28;92422;-35
2022/05/27 05:25:06;;;;;;;11.23;4.53;;;12.40;99.90;;;;;;4997209;28;94580;-34
2022/05/27 05:27:34;;;;;;;21.50;4.35;;;12.50;99.90;;;;;;4997186;28;94373;-33
2022/05/27 05:30:00;;;;;;;12.88;4.35;;;12.60;99.90;;;;;;4997899;28;93263;-36
2022/05/27 05:32:26;;;;;;;8.27;4.18;;;12.60;99.90;;;;;;4996824;28;94490;-34
2022/05/27 05:34:53;;;;;;;13.52;4.72;;;12.70;99.90;;;;;;4996969;28;94478;-38
2022/05/27 05:37:18;;;;;;;16.13;4.30;;;12.70;99.90;;;;;;4996293;28;96689;-34
2022/05/27 05:39:44;;;;;;;9.82;4.05;;;12.80;99.90;;;;;;4996645;28;95303;-36
2022/05/27 05:42:10;;;;;;;12.95;3.95;;;12.80;99.90;;;;;;4997405;28;92871;-35
2022/05/27 05:44:36;;;;;;;4.97;3.58;;;12.80;99.90;;;;;;4996563;28;94253;-35
2022/05/27 05:47:02;;;;;;;6.80;3.65;;;12.90;99.90;;;;;;4996206;28;94792;-38
2022/05/27 05:49:28;;;;;;;18.77;3.75;;;13.10;99.90;;;;;;4996218;28;94630;-33
2022/05/27 05:51:56;;;;;;;11.27;4.18;;;13.40;99.90;;;;;;4997107;28;94603;-35
2022/05/27 05:54:24;;;;;;;17.92;4.68;;;13.40;99.90;;;;;;4996914;28;93188;-36
2022/05/27 05:56:49;;;;;;;20.73;4.32;;;13.40;99.90;;;;;;4996614;28;94789;-36
2022/05/27 05:59:16;;;;;;;20.02;3.65;;;13.80;99.90;;;;;;4996429;28;94776;-35
2022/05/27 06:01:43;;;;;;;7.90;3.55;;;14.00;99.90;;;;;;4995443;28;94517;-37
2022/05/27 06:04:09;;;;;;;9.10;3.60;;;14.30;99.90;;;;;;4996329;28;94412;-38
2022/05/27 06:06:35;;;;;;;9.07;3.85;;;14.50;99.90;;;;;;4996242;28;96988;-36
2022/05/27 06:09:01;;;;;;;8.82;3.38;;;14.60;99.90;;;;;;4995977;28;94852;-34
2022/05/27 06:11:26;;;;;;;11.40;4.40;;;14.40;99.90;;;;;;4997028;28;92125;-34
2022/05/27 06:13:52;;;;;;;8.93;3.33;;;14.30;99.90;;;;;;4995749;28;94375;-34
2022/05/27 06:16:18;;;;;;;8.75;3.60;;;14.80;99.90;;;;;;4995754;28;99448;-39
2022/05/27 06:18:43;;;;;;;11.57;4.22;;;14.60;99.90;;;;;;4995684;28;94814;-36
2022/05/27 06:21:09;;;;;;;9.20;4.13;;;14.30;99.90;;;;;;4996112;28;94197;-36
2022/05/27 06:23:35;;;;;;;7.60;3.50;;;14.50;99.90;;;;;;4996619;28;94386;-37
2022/05/27 06:26:05;;;;;;;11.55;3.42;;;14.80;99.90;;;;;;4995149;28;95435;-35
2022/05/27 06:36:45;;;;;;;17.55;4.50;;;15.80;99.90;;;;;;4995845;28;95113;-34
2022/05/27 06:39:11;;;;;;;12.27;3.65;;;16.00;99.90;;;;;;4997251;28;95086;-36
2022/05/27 06:41:37;;;;;;;10.30;4.10;;;15.70;99.90;;;;;;4996166;28;94310;-35
2022/05/27 06:44:03;;;;;;;13.43;3.80;;;16.00;99.90;;;;;;4996558;28;92464;-37
2022/05/27 06:46:29;;;;;;;8.38;3.40;;;16.20;99.90;;;;;;4996101;28;95346;-33
2022/05/27 06:48:55;;;;;;;10.90;3.65;;;15.70;99.90;;;;;;4995950;28;94990;-38
2022/05/27 06:51:21;;;;;;;11.18;3.80;;;15.40;99.90;;;;;;4995584;28;94208;-34
2022/05/27 06:53:47;;;;;;;13.77;3.47;;;15.40;99.90;;;;;;4996045;28;94732;-34
2022/05/27 06:56:14;;;;;;;7.18;3.60;;;15.40;99.90;;;;;;4995628;28;94293;-38
2022/05/27 06:58:40;;;;;;;19.40;3.97;;;15.20;99.90;;;;;;4995966;28;94301;-35
2022/05/27 07:01:07;;;;;;;10.00;3.92;;;15.40;99.90;;;;;;4999731;28;93513;-36
2022/05/27 07:03:37;;;;;;;13.52;4.70;;;15.50;99.90;;;;;;4999151;28;92445;-34
2022/05/27 07:06:12;;;;;;;12.00;3.80;;;15.60;99.90;;;;;;4998659;28;94738;-34
2022/05/27 07:08:38;;;;;;;10.15;4.38;;;16.00;99.90;;;;;;4999797;28;94666;-37
2022/05/27 07:11:04;;;;;;;10.02;3.08;;;15.70;99.90;;;;;;4998987;28;94124;-33
2022/05/27 07:13:31;;;;;;;13.75;3.88;;;15.90;99.90;;;;;;4996891;28;94302;-35
2022/05/27 07:15:57;;;;;;;10.75;3.40;;;16.10;99.90;;;;;;4996440;28;96185;-36
2022/05/27 07:18:23;;;;;;;11.23;5.03;;;16.40;99.90;;;;;;4996780;28;95575;-38
2022/05/27 07:20:49;;;;;;;12.75;3.15;;;16.70;99.90;;;;;;4997267;28;93666;-35
2022/05/27 07:23:15;;;;;;;8.98;3.47;;;16.20;99.90;;;;;;4997478;28;93423;-37
2022/05/27 07:25:41;;;;;;;7.90;3.28;;;16.10;99.90;;;;;;4996424;28;94540;-37
2022/05/27 07:28:08;;;;;;;7.32;3.05;;;15.80;99.90;;;;;;4996827;28;94760;-36
2022/05/27 07:30:34;;;;;;;8.75;3.58;;;15.90;99.90;;;;;;4997985;28;93043;-37
2022/05/27 07:33:00;;;;;;;7.35;3.25;;;15.90;99.90;;;;;;4996874;28;92211;-35
2022/05/27 07:35:26;;;;;;;7.90;2.83;;;15.90;99.90;;;;;;4995580;28;95276;-36
2022/05/27 07:37:51;;;;;;;12.20;3.60;;;15.60;99.90;;;;;;4996308;28;94494;-36
2022/05/27 07:40:18;;;;;;;13.55;3.53;;;16.30;99.90;;;;;;4996561;28;93120;-35
2022/05/27 07:42:44;;;;;;;8.50;3.65;;;16.20;88.60;;;;;;4996530;28;92495;-35
2022/05/27 07:45:12;;;;;;;9.02;3.67;;;16.00;99.60;;;;;;4995969;28;94803;-37
2022/05/27 07:47:37;;;;;;;10.65;4.25;;;15.60;99.90;;;;;;4996478;28;94607;-36
2022/05/27 07:50:04;;;;;;;8.20;3.45;;;15.80;99.90;;;;;;4996484;28;94480;-35
2022/05/27 07:52:32;;;;;;;11.88;3.63;;;16.20;99.90;;;;;;4996814;28;92994;-34
2022/05/27 07:54:58;;;;;;;11.35;4.35;;;16.30;99.90;;;;;;4995922;28;94782;-35
2022/05/27 07:57:24;;;;;;;6.10;3.63;;;16.20;99.90;;;;;;4997754;28;94423;-33
2022/05/27 08:00:05;;;;;;;6.35;2.63;;;16.20;99.90;;;;;;4996518;28;94089;-36
2022/05/27 08:02:31;;;;;;;11.95;3.83;;;15.90;99.90;;;;;;4996381;28;92886;-37
2022/05/27 08:04:57;;;;;;;6.65;3.13;;;16.20;99.90;;;;;;4995769;28;95500;-35
2022/05/27 08:07:26;;;;;;;10.75;4.03;;;16.40;99.90;;;;;;4996448;28;95019;-34
2022/05/27 08:09:51;;;;;;;;;;;16.60;99.90;;;;;;4997755;28;93484;-35
2022/05/27 08:12:17;;;;;;;7.47;3.40;;;16.30;99.90;;;;;;4996626;28;94519;-35
2022/05/27 08:14:43;;;;;;;7.25;3.55;;;16.20;99.90;;;;;;4995101;28;94758;-36
2022/05/27 08:17:09;;;;;;;7.30;3.10;;;16.50;99.90;;;;;;4995691;28;94792;-36
2022/05/27 08:19:35;;;;;;;9.48;3.35;;;16.40;94.00;;;;;;4996212;28;92923;-36
2022/05/27 08:22:00;;;;;;;10.75;4.85;;;16.70;99.90;;;;;;4996693;28;92354;-36
2022/05/27 08:24:26;;;;;;;8.45;3.60;;;16.50;99.90;;;;;;4978196;28;95897;-37
2022/05/27 08:26:51;;;;;;;7.05;3.40;;;16.50;99.90;;;;;;4995761;28;94495;-35
2022/05/27 08:29:17;;;;;;;7.88;3.20;;;16.40;99.90;;;;;;4996073;28;93124;-36
2022/05/27 08:31:42;;;;;;;11.15;3.78;;;16.80;99.90;;;;;;4995840;28;93194;-36
2022/05/27 08:39:42;;;;;;;13.82;3.90;;;16.80;99.90;;;;;;4996046;28;94150;-36
2022/05/27 08:42:24;;;;;;;6.90;3.42;;;16.90;99.90;;;;;;4995991;28;93203;-36
2022/05/27 08:44:52;;;;;;;9.80;3.15;;;17.10;99.60;;;;;;4995892;28;94637;-35
2022/05/27 08:47:45;;;;;;;6.55;3.13;;;17.30;99.20;;;;;;4996508;28;93018;-35
2022/05/27 08:50:37;;;;;;;12.73;4.00;;;16.90;99.90;;;;;;4995325;28;93918;-35
2022/05/27 08:53:18;;;;;;;5.05;3.35;;;16.40;99.90;;;;;;4995852;28;94357;-35
2022/05/27 08:59:28;;;;;;;7.78;3.03;;;16.30;99.90;;;;;;4995969;28;95580;-37
2022/05/27 09:02:15;;;;;;;5.40;2.95;;;16.50;89.90;;;;;;4989381;28;94873;-36
2022/05/27 09:04:53;;;;;;;7.80;2.17;;;16.70;74.20;;;;;;4994797;28;92121;-38
2022/05/27 09:08:02;;;;;;;14.30;2.95;;;16.60;83.60;;;;;;4995078;28;94696;-35
2022/05/27 09:10:37;;;;;;;9.32;2.58;;;17.10;95.00;;;;;;4989653;28;95942;-34
2022/05/27 09:13:12;;;;;;;9.50;3.08;;;17.50;99.90;;;;;;4995262;28;93057;-35
2022/05/27 09:15:51;;;;;;;11.20;2.95;;;17.70;85.30;;;;;;4995536;28;93533;-38
2022/05/27 09:18:53;;;;;;;9.75;2.08;;;17.20;91.10;;;;;;4977791;28;94869;-34
2022/05/27 09:22:00;;;;;;;6.68;2.80;;;17.30;96.80;;;;;;4977824;28;94742;-34
2022/05/27 09:24:26;;;;;;;5.45;3.00;;;17.10;83.30;;;;;;4993637;28;94312;-34
2022/05/27 09:26:52;;;;;;;6.10;2.88;;;17.50;96.00;;;;;;4995158;28;93190;-37
2022/05/27 09:29:42;;;;;;;10.38;3.67;;;17.00;93.30;;;;;;4994731;28;95267;-37
2022/05/27 09:32:19;;;;;;;6.13;2.83;;;17.10;99.90;;;;;;4994982;28;94550;-35
2022/05/27 09:34:47;;;;;;;8.45;3.17;;;17.30;99.90;;;;;;4995115;28;93125;-36
2022/05/27 09:37:20;;;;;;;5.82;2.92;;;17.10;82.50;;;;;;4994891;28;93026;-34
2022/05/27 09:39:47;;;;;;;10.68;3.05;;;16.60;98.40;;;;;;4994911;28;94516;-36
2022/05/27 09:42:30;;;;;;;4.55;2.50;;;16.70;96.20;;;;;;4993100;28;94683;-34
2022/05/27 09:44:58;;;;;;;3.88;2.67;;;17.00;81.10;;;;;;4994928;28;92834;-36
2022/05/27 09:47:31;;;;;;;6.27;3.20;;;16.70;91.00;;;;;;4994869;28;94573;-36
2022/05/27 09:50:04;;;;;;;5.32;2.15;;;17.00;90.30;;;;;;4993426;28;96989;-35
2022/05/27 09:52:36;;;;;;;3.03;2.20;;;17.00;84.40;;;;;;4993902;28;96008;-34
2022/05/27 09:55:23;;;;;;;4.88;1.80;;;17.30;90.20;;;;;;4995149;28;93290;-35
2022/05/27 09:57:56;;;;;;;5.00;2.20;;;17.50;77.80;;;;;;4994327;28;92907;-35
2022/05/27 10:00:41;;;;;;;8.65;2.28;;;17.80;83.50;;;;;;4995249;28;93933;-37
2022/05/27 10:03:20;;;;;;;8.93;2.17;;;17.60;85.70;;;;;;4994164;28;94842;-35
2022/05/27 10:06:13;;;;;;;7.60;3.40;;;17.70;80.10;;;;;;4994951;28;94381;-34
2022/05/27 10:08:45;;;;;;;6.57;3.35;;;17.20;93.60;;;;;;4994827;28;94423;-37
2022/05/27 10:11:18;;;;;;;6.03;2.33;;;16.70;99.90;;;;;;4994240;28;94310;-38
2022/05/27 10:13:44;;;;;;;7.32;2.60;;;16.20;98.40;;;;;;4994262;28;95073;-38
2022/05/27 10:16:28;;;;;;;10.02;2.80;;;16.00;98.90;;;;;;4994559;28;94437;-37
2022/05/27 10:19:21;;;;;;;4.88;2.55;;;15.80;99.90;;;;;;4994607;28;93988;-34
2022/05/27 10:22:03;;;;;;;13.18;2.72;;;16.30;99.90;;;;;;4995817;28;94932;-34
2022/05/27 10:24:42;;;;;;;6.43;2.75;;;16.70;99.90;;;;;;4994065;28;94335;-35
2022/05/27 10:27:12;;;;;;;9.80;2.65;;;16.40;96.40;;;;;;4993959;28;94532;-35
2022/05/27 10:29:59;;;;;;;5.45;2.95;;;16.60;95.30;;;;;;4996336;28;94285;-35
2022/05/27 10:32:43;;;;;;;3.53;2.58;;;16.90;96.50;;;;;;4993094;28;94446;-39
2022/05/27 10:35:32;;;;;;;7.40;2.67;;;16.80;92.60;;;;;;4986611;28;94929;-34
2022/05/27 10:38:35;;;;;;;6.03;2.50;;;16.60;98.10;;;;;;4997227;28;92860;-38
2022/05/27 10:41:25;;;;;;;5.45;2.60;;;16.40;99.90;;;;;;4997765;28;95393;-37
2022/05/27 10:44:36;;;;;;;9.07;3.75;;;16.50;99.90;;;;;;4997185;28;95521;-35
2022/05/27 10:47:04;;;;;;;8.07;2.88;;;16.90;99.90;;;;;;4977252;28;95429;-35
2022/05/27 10:50:05;;;;;;;7.38;2.63;;;16.80;89.30;;;;;;4997899;28;93450;-37
2022/05/27 10:52:49;;;;;;;3.50;2.47;;;17.00;99.90;;;;;;4958157;28;94348;-36
2022/05/27 10:55:37;;;;;;;12.43;3.13;;;16.80;91.30;;;;;;4997289;28;94724;-38
2022/05/27 11:04:23;;;;;;;8.80;3.00;;;16.50;92.20;;;;;;4997652;28;91892;-37
2022/05/27 11:07:21;;;;;;;10.90;2.95;;;15.90;88.70;;;;;;4996724;28;94897;-36
2022/05/27 11:10:36;;;;;;;6.43;3.35;;;16.20;96.40;;;;;;4996369;28;94708;-34
2022/05/27 11:16:37;;;;;;;4.53;2.40;;;16.60;93.30;;;;;;4997518;28;92658;-35
2022/05/27 11:19:17;;;;;;;7.65;2.92;;;16.30;82.20;;;;;;4997753;28;94878;-33
2022/05/27 11:22:13;;;;;;;10.00;2.90;;;16.20;90.80;;;;;;4997001;28;94571;-36
2022/05/27 11:24:53;;;;;;;15.00;2.78;;;16.50;92.20;;;;;;4997882;28;94273;-36
2022/05/27 11:27:39;;;;;;;5.38;2.70;;;16.30;89.80;;;;;;4996987;28;93332;-35
2022/05/27 11:30:27;;;;;;;3.58;2.72;;;16.00;99.90;;;;;;4974183;28;93237;-37
2022/05/27 11:33:35;;;;;;;6.53;3.08;;;15.80;99.90;;;;;;4996833;28;94513;-37
2022/05/27 11:36:13;;;;;;;10.07;3.35;;;16.00;99.90;;;;;;4997150;28;93662;-36
2022/05/27 11:38:54;;;;;;;3.47;1.95;;;16.60;99.90;;;;;;4996192;28;94338;-35
2022/05/27 11:41:38;;;;;;;7.35;2.83;;;17.00;97.70;;;;;;4996414;28;96873;-37
2022/05/27 11:44:13;;;;;;;5.70;2.38;;;16.90;91.80;;;;;;4996242;28;95941;-34
2022/05/27 11:46:45;;;;;;;9.90;2.17;;;16.60;98.70;;;;;;4996457;28;92222;-36
2022/05/27 11:49:26;;;;;;;7.75;2.67;;;16.40;92.00;;;;;;4997395;28;92174;-35
2022/05/27 11:52:16;;;;;;;8.32;3.40;;;16.50;99.60;;;;;;4995109;28;94736;-37
2022/05/27 11:55:12;;;;;;;10.63;3.20;;;16.80;99.90;;;;;;4996256;28;94320;-33
2022/05/27 11:58:05;;;;;;;11.80;3.25;;;16.70;99.90;;;;;;4996172;28;93484;-33
2022/05/27 12:00:36;;;;;;;15.60;3.25;;;17.30;98.80;;;;;;4997313;28;92364;-38
2022/05/27 12:03:11;;;;;;;5.22;1.95;;;17.00;92.90;;;;;;4996304;28;95641;-36
2022/05/27 12:05:42;;;;;;;8.98;3.38;;;16.70;90.50;;;;;;4995798;28;95539;-35
2022/05/27 12:08:34;;;;;;;7.28;2.67;;;16.50;91.90;;;;;;4995824;28;95881;-35
2022/05/27 12:11:13;;;;;;;9.05;2.65;;;16.30;93.60;;;;;;4997562;28;93255;-38
2022/05/27 12:13:48;;;;;;;8.65;2.92;;;16.10;99.90;;;;;;4996252;28;95106;-38
2022/05/27 12:16:31;;;;;;;5.78;2.22;;;16.40;99.90;;;;;;4996120;28;94163;-36
2022/05/27 12:19:00;;;;;;;7.30;3.05;;;16.30;93.10;;;;;;4995911;28;94187;-36
2022/05/27 12:21:31;;;;;;;6.70;2.97;;;16.10;99.90;;;;;;4996878;28;93551;-38
2022/05/27 12:24:02;;;;;;;10.02;3.85;;;16.00;99.90;;;;;;4995686;28;93706;-35
2022/05/27 12:26:32;;;;;;;9.48;3.58;;;16.30;99.90;;;;;;4996363;28;94132;-35
2022/05/27 12:29:02;;;;;;;8.32;3.15;;;16.20;99.90;;;;;;4995551;28;93481;-37
2022/05/27 12:31:30;;;;;;;9.88;3.28;;;16.60;99.90;;;;;;4995944;28;92258;-38
2022/05/27 12:33:56;;;;;;;7.97;3.28;;;16.90;96.00;;;;;;4994848;28;95531;-33
2022/05/27 12:36:26;;;;;;;11.20;2.88;;;16.80;99.90;;;;;;4996105;28;95355;-37
2022/05/27 12:38:54;;;;;;;8.82;3.05;;;16.30;92.70;;;;;;4996182;28;94439;-35
2022/05/27 12:41:33;;;;;;;;;;;16.50;99.90;;;;;;4999011;28;94810;-37
2022/05/27 12:44:01;;;;;;;6.38;3.35;;;16.70;99.90;;;;;;4995914;28;94706;-35
2022/05/27 12:46:44;;;;;;;12.35;3.60;;;16.90;99.90;;;;;;4995241;28;95091;-34
2022/05/27 12:49:33;;;;;;;9.18;3.22;;;16.80;96.90;;;;;;4996301;28;93416;-35
2022/05/27 12:51:59;;;;;;;6.25;2.92;;;16.80;99.90;;;;;;5028391;22;93727;-41
2022/05/27 12:54:43;;;;;;;5.45;3.03;;;16.50;99.90;;;;;;4995498;28;94808;-34
2022/05/27 13:00:55;;;;;;;8.15;3.13;;;15.80;95.70;;;;;;4995298;28;94188;-36
2022/05/27 13:03:33;;;;;;;14.07;2.97;;;16.40;99.90;;;;;;4989588;28;93020;-33
2022/05/27 13:06:03;;;;;;;15.40;3.92;;;16.20;98.10;;;;;;4995118;28;94843;-34
2022/05/27 13:08:34;;;;;;;4.93;2.70;;;16.60;99.90;;;;;;4995666;28;94427;-37
2022/05/27 13:11:00;;;;;;;6.82;2.55;;;16.80;96.10;;;;;;4996142;28;94333;-35
2022/05/27 13:13:29;;;;;;;13.57;3.47;;;16.80;95.20;;;;;;4996410;28;94671;-35
2022/05/27 13:16:27;;;;;;;5.65;2.55;;;16.60;99.90;;;;;;4994400;28;94758;-38
2022/05/27 13:19:05;;;;;;;11.80;3.42;;;16.70;95.60;;;;;;4995654;28;95023;-34
2022/05/27 13:21:47;;;;;;;10.90;3.30;;;16.20;95.50;;;;;;4995209;28;94028;-35
2022/05/27 13:24:12;;;;;;;7.78;3.05;;;16.00;99.90;;;;;;4996177;28;94664;-34
2022/05/27 13:27:02;;;;;;;6.00;3.00;;;16.10;99.90;;;;;;4994171;28;95482;-37
2022/05/27 13:29:49;;;;;;;7.60;3.40;;;16.00;99.50;;;;;;4994780;28;94362;-34
2022/05/27 13:32:22;;;;;;;8.27;3.20;;;15.60;99.90;;;;;;4995649;28;94962;-35
2022/05/27 13:35:01;;;;;;;8.30;3.00;;;15.70;99.90;;;;;;4995422;28;94075;-35
2022/05/27 13:37:43;;;;;;;7.68;3.30;;;15.90;99.90;;;;;;4995038;28;95522;-36
2022/05/27 13:40:19;;;;;;;7.20;2.97;;;15.90;99.90;;;;;;4994435;28;94787;-38
2022/05/27 13:42:51;;;;;;;7.38;2.15;;;15.50;97.00;;;;;;4994586;28;93473;-37
2022/05/27 13:45:42;;;;;;;8.95;2.92;;;15.70;99.90;;;;;;4995713;28;93428;-39
2022/05/27 13:48:28;;;;;;;11.48;3.42;;;15.80;99.90;;;;;;4965062;28;95572;-36
2022/05/27 13:51:18;;;;;;;14.35;3.95;;;15.70;99.90;;;;;;4994031;28;94505;-37